sensor_id;sensor_type;location;lat;lon;timestamp;pressure;altitude;pressure_sealevel;temperature;humidity
51585;BME280;37669;50.312;18.670;2022-10-31T00:02:08;49284.31;;;-145.86;95.24
51585;BME280;37669;50.312;18.670;2022-10-31T00:04:35;49276.38;;;-145.86;95.08
51585;BME280;37669;50.312;18.670;2022-10-31T00:07:02;49264.50;;;-145.86;95.05
51585;BME280;37669;50.312;18.670;2022-10-31T00:09:29;49274.41;;;-145.86;95.21
51585;BME280;37669;50.312;18.670;2022-10-31T00:11:57;49276.38;;;-145.86;95.25
51585;BME280;37669;50.312;18.670;2022-10-31T00:14:24;49294.19;;;-145.86;95.28
51585;BME280;37669;50.312;18.670;2022-10-31T00:16:51;49312.03;;;-145.86;95.17
51585;BME280;37669;50.312;18.670;2022-10-31T00:19:18;49304.09;;;-145.86;95.02
51585;BME280;37669;50.312;18.670;2022-10-31T00:21:45;49254.59;;;-145.86;95.29
51585;BME280;37669;50.312;18.670;2022-10-31T00:24:12;49282.31;;;-145.86;95.21
51585;BME280;37669;50.312;18.670;2022-10-31T00:26:39;49282.31;;;-145.86;95.06
51585;BME280;37669;50.312;18.670;2022-10-31T00:29:08;49262.53;;;-145.86;95.54
51585;BME280;37669;50.312;18.670;2022-10-31T00:31:35;49325.88;;;-145.86;95.37
51585;BME280;37669;50.312;18.670;2022-10-31T00:34:02;49290.25;;;-145.86;95.67
51585;BME280;37669;50.312;18.670;2022-10-31T00:36:29;49302.13;;;-145.86;95.79
51585;BME280;37669;50.312;18.670;2022-10-31T00:38:58;49278.38;;;-145.86;95.89
51585;BME280;37669;50.312;18.670;2022-10-31T00:41:26;49282.31;;;-145.86;95.47
51585;BME280;37669;50.312;18.670;2022-10-31T00:43:54;49280.34;;;-145.86;96.00
51585;BME280;37669;50.312;18.670;2022-10-31T00:46:22;49296.19;;;-145.86;95.70
51585;BME280;37669;50.312;18.670;2022-10-31T00:48:50;49280.34;;;-145.86;95.77
51585;BME280;37669;50.312;18.670;2022-10-31T00:51:17;49244.69;;;-145.86;95.53
51585;BME280;37669;50.312;18.670;2022-10-31T00:53:44;49262.53;;;-145.86;95.81
51585;BME280;37669;50.312;18.670;2022-10-31T00:56:11;49244.69;;;-145.86;95.34
51585;BME280;37669;50.312;18.670;2022-10-31T00:58:38;49294.19;;;-145.86;95.43
51585;BME280;37669;50.312;18.670;2022-10-31T01:01:05;49306.09;;;-145.86;95.75
51585;BME280;37669;50.312;18.670;2022-10-31T01:03:33;49310.03;;;-145.86;95.56
51585;BME280;37669;50.312;18.670;2022-10-31T01:06:03;49290.25;;;-145.86;95.36
51585;BME280;37669;50.312;18.670;2022-10-31T01:08:30;49270.44;;;-145.86;95.50
51585;BME280;37669;50.312;18.670;2022-10-31T01:11:02;49230.84;;;-145.86;95.25
51585;BME280;37669;50.312;18.670;2022-10-31T01:13:29;49254.59;;;-145.86;95.32
51585;BME280;37669;50.312;18.670;2022-10-31T01:15:57;49254.59;;;-145.86;95.55
51585;BME280;37669;50.312;18.670;2022-10-31T01:18:25;49286.28;;;-145.86;95.15
51585;BME280;37669;50.312;18.670;2022-10-31T01:21:05;49266.47;;;-145.86;95.57
51585;BME280;37669;50.312;18.670;2022-10-31T01:23:33;49316.00;;;-145.86;95.81
51585;BME280;37669;50.312;18.670;2022-10-31T01:26:06;49288.25;;;-145.86;95.63
51585;BME280;37669;50.312;18.670;2022-10-31T01:28:34;49266.47;;;-145.86;95.57
51585;BME280;37669;50.312;18.670;2022-10-31T01:31:03;49254.59;;;-145.86;95.70
51585;BME280;37669;50.312;18.670;2022-10-31T01:33:31;49264.50;;;-145.86;95.68
51585;BME280;37669;50.312;18.670;2022-10-31T01:35:58;49264.50;;;-145.86;95.82
51585;BME280;37669;50.312;18.670;2022-10-31T01:38:27;49300.16;;;-145.86;95.91
51585;BME280;37669;50.312;18.670;2022-10-31T01:40:54;49292.22;;;-145.86;95.84
51585;BME280;37669;50.312;18.670;2022-10-31T01:43:21;49276.38;;;-145.86;95.47
51585;BME280;37669;50.312;18.670;2022-10-31T01:45:51;49252.63;;;-145.86;95.83
51585;BME280;37669;50.312;18.670;2022-10-31T01:48:24;49286.28;;;-145.86;95.22
51585;BME280;37669;50.312;18.670;2022-10-31T01:50:54;49288.25;;;-145.86;95.11
51585;BME280;37669;50.312;18.670;2022-10-31T01:53:22;49252.63;;;-145.86;95.71
51585;BME280;37669;50.312;18.670;2022-10-31T01:55:52;49254.59;;;-145.86;95.64
51585;BME280;37669;50.312;18.670;2022-10-31T01:58:22;49264.50;;;-145.86;96.09
51585;BME280;37669;50.312;18.670;2022-10-31T02:00:57;49242.72;;;-145.86;95.85
51585;BME280;37669;50.312;18.670;2022-10-31T02:03:25;49280.34;;;-145.86;95.45
51585;BME280;37669;50.312;18.670;2022-10-31T02:05:54;49298.16;;;-145.86;95.73
51585;BME280;37669;50.312;18.670;2022-10-31T02:08:26;49250.63;;;-145.86;95.79
51585;BME280;37669;50.312;18.670;2022-10-31T02:10:56;49230.84;;;-145.86;95.58
51585;BME280;37669;50.312;18.670;2022-10-31T02:13:24;49266.47;;;-145.86;95.64
51585;BME280;37669;50.312;18.670;2022-10-31T02:15:52;49256.56;;;-145.86;95.99
51585;BME280;37669;50.312;18.670;2022-10-31T02:18:20;49258.56;;;-145.86;96.19
51585;BME280;37669;50.312;18.670;2022-10-31T02:21:02;49270.44;;;-145.86;96.19
51585;BME280;37669;50.312;18.670;2022-10-31T02:23:51;49268.47;;;-145.86;96.20
51585;BME280;37669;50.312;18.670;2022-10-31T02:26:49;49238.75;;;-145.86;96.51
51585;BME280;37669;50.312;18.670;2022-10-31T02:32:43;49270.44;;;-145.86;96.43
51585;BME280;37669;50.312;18.670;2022-10-31T02:35:19;49286.28;;;-145.86;96.21
51585;BME280;37669;50.312;18.670;2022-10-31T02:37:57;49250.63;;;-145.86;96.42
51585;BME280;37669;50.312;18.670;2022-10-31T02:40:32;49274.41;;;-145.86;96.35
51585;BME280;37669;50.312;18.670;2022-10-31T02:43:05;49246.69;;;-145.86;96.11
51585;BME280;37669;50.312;18.670;2022-10-31T02:45:37;49260.53;;;-145.86;96.68
51585;BME280;37669;50.312;18.670;2022-10-31T02:48:09;49256.56;;;-145.86;96.17
51585;BME280;37669;50.312;18.670;2022-10-31T02:50:40;49226.88;;;-145.86;96.39
51585;BME280;37669;50.312;18.670;2022-10-31T02:53:08;49254.59;;;-145.86;95.98
51585;BME280;37669;50.312;18.670;2022-10-31T02:55:56;49282.31;;;-145.86;96.04
51585;BME280;37669;50.312;18.670;2022-10-31T02:58:27;49232.81;;;-145.86;96.08
51585;BME280;37669;50.312;18.670;2022-10-31T03:04:09;49244.69;;;-145.86;95.90
51585;BME280;37669;50.312;18.670;2022-10-31T03:06:45;49238.75;;;-145.86;96.20
51585;BME280;37669;50.312;18.670;2022-10-31T03:09:21;49238.75;;;-145.86;96.41
51585;BME280;37669;50.312;18.670;2022-10-31T03:11:55;49258.56;;;-145.86;96.07
51585;BME280;37669;50.312;18.670;2022-10-31T03:14:28;49224.91;;;-145.86;96.53
51585;BME280;37669;50.312;18.670;2022-10-31T03:17:00;49278.38;;;-145.86;96.25
51585;BME280;37669;50.312;18.670;2022-10-31T03:19:35;49246.69;;;-145.86;96.30
51585;BME280;37669;50.312;18.670;2022-10-31T03:22:09;49236.78;;;-145.86;96.41
51585;BME280;37669;50.312;18.670;2022-10-31T03:24:42;49278.38;;;-145.86;95.89
51585;BME280;37669;50.312;18.670;2022-10-31T03:27:12;49242.72;;;-145.86;96.42
51585;BME280;37669;50.312;18.670;2022-10-31T03:29:42;49258.56;;;-145.86;96.49
51585;BME280;37669;50.312;18.670;2022-10-31T03:32:12;49215.00;;;-145.86;96.51
51585;BME280;37669;50.312;18.670;2022-10-31T03:34:42;49226.88;;;-145.86;96.61
51585;BME280;37669;50.312;18.670;2022-10-31T03:37:14;49234.78;;;-145.86;96.55
51585;BME280;37669;50.312;18.670;2022-10-31T03:39:44;49242.72;;;-145.86;96.51
51585;BME280;37669;50.312;18.670;2022-10-31T03:42:15;49201.13;;;-145.86;96.36
51585;BME280;37669;50.312;18.670;2022-10-31T03:44:48;49254.59;;;-145.86;96.58
51585;BME280;37669;50.312;18.670;2022-10-31T03:47:19;49246.69;;;-145.86;96.16
51585;BME280;37669;50.312;18.670;2022-10-31T03:49:47;49211.03;;;-145.86;96.72
51585;BME280;37669;50.312;18.670;2022-10-31T03:52:20;49238.75;;;-145.86;96.66
51585;BME280;37669;50.312;18.670;2022-10-31T03:54:52;49201.13;;;-145.86;96.91
51585;BME280;37669;50.312;18.670;2022-10-31T03:57:25;49244.69;;;-145.86;96.22
51585;BME280;37669;50.312;18.670;2022-10-31T03:59:57;49218.94;;;-145.86;96.59
51585;BME280;37669;50.312;18.670;2022-10-31T04:02:29;49238.75;;;-145.86;96.40
51585;BME280;37669;50.312;18.670;2022-10-31T04:04:59;49207.06;;;-145.86;96.59
51585;BME280;37669;50.312;18.670;2022-10-31T04:07:29;49230.84;;;-145.86;96.72
51585;BME280;37669;50.312;18.670;2022-10-31T04:09:59;49232.81;;;-145.86;96.69
51585;BME280;37669;50.312;18.670;2022-10-31T04:12:27;49220.94;;;-145.86;96.62
51585;BME280;37669;50.312;18.670;2022-10-31T04:14:56;49224.91;;;-145.86;96.94
51585;BME280;37669;50.312;18.670;2022-10-31T04:17:27;49240.75;;;-145.86;96.82
51585;BME280;37669;50.312;18.670;2022-10-31T04:20:00;49226.88;;;-145.86;96.62
51585;BME280;37669;50.312;18.670;2022-10-31T04:22:27;49224.91;;;-145.86;96.41
51585;BME280;37669;50.312;18.670;2022-10-31T04:24:55;49197.16;;;-145.86;96.67
51585;BME280;37669;50.312;18.670;2022-10-31T04:27:22;49230.84;;;-145.86;96.84
51585;BME280;37669;50.312;18.670;2022-10-31T04:29:49;49254.59;;;-145.86;96.70
51585;BME280;37669;50.312;18.670;2022-10-31T04:32:16;49244.69;;;-145.86;96.59
51585;BME280;37669;50.312;18.670;2022-10-31T04:34:43;49274.41;;;-145.86;96.55
51585;BME280;37669;50.312;18.670;2022-10-31T04:37:11;49234.78;;;-145.86;96.73
51585;BME280;37669;50.312;18.670;2022-10-31T04:39:38;49216.97;;;-145.86;96.72
51585;BME280;37669;50.312;18.670;2022-10-31T04:42:05;49220.94;;;-145.86;96.89
51585;BME280;37669;50.312;18.670;2022-10-31T04:44:32;49216.97;;;-145.86;96.65
51585;BME280;37669;50.312;18.670;2022-10-31T04:46:59;49222.91;;;-145.86;96.79
51585;BME280;37669;50.312;18.670;2022-10-31T04:49:26;49218.94;;;-145.86;96.43
51585;BME280;37669;50.312;18.670;2022-10-31T04:51:53;49222.91;;;-145.86;96.62
51585;BME280;37669;50.312;18.670;2022-10-31T04:54:22;49203.13;;;-145.86;97.09
51585;BME280;37669;50.312;18.670;2022-10-31T04:56:49;49205.09;;;-145.86;97.12
51585;BME280;37669;50.312;18.670;2022-10-31T04:59:16;49218.94;;;-145.86;97.28
51585;BME280;37669;50.312;18.670;2022-10-31T05:01:43;49224.91;;;-145.86;97.24
51585;BME280;37669;50.312;18.670;2022-10-31T05:04:10;49266.47;;;-145.86;97.28
51585;BME280;37669;50.312;18.670;2022-10-31T05:06:37;49218.94;;;-145.86;97.21
51585;BME280;37669;50.312;18.670;2022-10-31T05:09:04;49226.88;;;-145.86;97.18
51585;BME280;37669;50.312;18.670;2022-10-31T05:11:32;49224.91;;;-145.86;96.86
51585;BME280;37669;50.312;18.670;2022-10-31T05:13:59;49234.78;;;-145.86;96.80
51585;BME280;37669;50.312;18.670;2022-10-31T05:16:27;49193.22;;;-145.86;96.83
51585;BME280;37669;50.312;18.670;2022-10-31T05:18:54;49244.69;;;-145.86;96.90
51585;BME280;37669;50.312;18.670;2022-10-31T05:21:21;49222.91;;;-145.86;96.77
51585;BME280;37669;50.312;18.670;2022-10-31T05:23:49;49213.00;;;-145.86;97.17
51585;BME280;37669;50.312;18.670;2022-10-31T05:26:16;49230.84;;;-145.86;96.91
51585;BME280;37669;50.312;18.670;2022-10-31T05:28:44;49238.75;;;-145.86;96.88
51585;BME280;37669;50.312;18.670;2022-10-31T05:31:11;49216.97;;;-145.86;97.20
51585;BME280;37669;50.312;18.670;2022-10-31T05:33:38;49222.91;;;-145.86;97.16
51585;BME280;37669;50.312;18.670;2022-10-31T05:36:05;49266.47;;;-145.86;97.28
51585;BME280;37669;50.312;18.670;2022-10-31T05:38:33;49268.47;;;-145.86;96.99
51585;BME280;37669;50.312;18.670;2022-10-31T05:41:00;49258.56;;;-145.86;96.82
51585;BME280;37669;50.312;18.670;2022-10-31T05:43:27;49266.47;;;-145.86;97.27
51585;BME280;37669;50.312;18.670;2022-10-31T05:45:56;49191.22;;;-145.86;96.93
51585;BME280;37669;50.312;18.670;2022-10-31T05:48:23;49234.78;;;-145.86;97.11
51585;BME280;37669;50.312;18.670;2022-10-31T05:50:50;49218.94;;;-145.86;97.30
51585;BME280;37669;50.312;18.670;2022-10-31T05:53:17;49207.06;;;-145.86;97.15
51585;BME280;37669;50.312;18.670;2022-10-31T05:55:44;49226.88;;;-145.86;97.48
51585;BME280;37669;50.312;18.670;2022-10-31T05:58:11;49266.47;;;-145.86;97.63
51585;BME280;37669;50.312;18.670;2022-10-31T06:00:38;49242.72;;;-145.86;97.47
51585;BME280;37669;50.312;18.670;2022-10-31T06:03:08;49211.03;;;-145.86;97.47
51585;BME280;37669;50.312;18.670;2022-10-31T06:05:36;49232.81;;;-145.86;97.89
51585;BME280;37669;50.312;18.670;2022-10-31T06:08:03;49222.91;;;-145.86;97.78
51585;BME280;37669;50.312;18.670;2022-10-31T06:10:30;49213.00;;;-145.86;97.88
51585;BME280;37669;50.312;18.670;2022-10-31T06:12:57;49209.06;;;-145.86;98.17
51585;BME280;37669;50.312;18.670;2022-10-31T06:15:24;49234.78;;;-145.86;98.50
51585;BME280;37669;50.312;18.670;2022-10-31T06:17:58;49218.94;;;-145.86;98.27
51585;BME280;37669;50.312;18.670;2022-10-31T06:20:27;49226.88;;;-145.86;98.60
51585;BME280;37669;50.312;18.670;2022-10-31T06:22:54;49256.56;;;-145.86;98.55
51585;BME280;37669;50.312;18.670;2022-10-31T06:25:24;49220.94;;;-145.86;98.61
51585;BME280;37669;50.312;18.670;2022-10-31T06:27:52;49242.72;;;-145.86;98.42
51585;BME280;37669;50.312;18.670;2022-10-31T06:30:19;49246.69;;;-145.86;98.73
51585;BME280;37669;50.312;18.670;2022-10-31T06:32:46;49226.88;;;-145.86;98.50
51585;BME280;37669;50.312;18.670;2022-10-31T06:35:14;49270.44;;;-145.86;98.73
51585;BME280;37669;50.312;18.670;2022-10-31T06:37:49;49246.69;;;-145.86;98.94
51585;BME280;37669;50.312;18.670;2022-10-31T06:40:17;49242.72;;;-145.86;99.16
51585;BME280;37669;50.312;18.670;2022-10-31T06:42:43;49256.56;;;-145.86;99.10
51585;BME280;37669;50.312;18.670;2022-10-31T06:45:10;49228.84;;;-145.86;99.07
51585;BME280;37669;50.312;18.670;2022-10-31T06:47:38;49244.69;;;-145.86;99.52
51585;BME280;37669;50.312;18.670;2022-10-31T06:50:05;49246.69;;;-145.86;99.35
51585;BME280;37669;50.312;18.670;2022-10-31T06:52:32;49274.41;;;-145.86;98.87
51585;BME280;37669;50.312;18.670;2022-10-31T06:55:01;49270.44;;;-145.86;99.29
51585;BME280;37669;50.312;18.670;2022-10-31T06:57:28;49278.38;;;-145.86;99.18
51585;BME280;37669;50.312;18.670;2022-10-31T06:59:55;49294.19;;;-145.86;98.92
51585;BME280;37669;50.312;18.670;2022-10-31T07:02:22;49286.28;;;-145.86;98.30
51585;BME280;37669;50.312;18.670;2022-10-31T07:04:49;49292.22;;;-145.86;98.20
51585;BME280;37669;50.312;18.670;2022-10-31T07:07:16;49258.56;;;-145.86;98.03
51585;BME280;37669;50.312;18.670;2022-10-31T07:09:43;49302.13;;;-145.86;98.22
51585;BME280;37669;50.312;18.670;2022-10-31T07:12:12;49266.47;;;-145.86;97.83
51585;BME280;37669;50.312;18.670;2022-10-31T07:14:38;49306.09;;;-145.86;97.69
51585;BME280;37669;50.312;18.670;2022-10-31T07:17:05;49250.63;;;-145.86;97.88
51585;BME280;37669;50.312;18.670;2022-10-31T07:19:33;49298.16;;;-145.86;97.83
51585;BME280;37669;50.312;18.670;2022-10-31T07:22:04;49290.25;;;-145.86;97.62
51585;BME280;37669;50.312;18.670;2022-10-31T07:24:31;49317.97;;;-145.86;97.14
51585;BME280;37669;50.312;18.670;2022-10-31T07:26:58;49306.09;;;-145.86;96.43
51585;BME280;37669;50.312;18.670;2022-10-31T07:29:26;49310.03;;;-145.86;95.92
51585;BME280;37669;50.312;18.670;2022-10-31T07:31:53;49310.03;;;-145.86;95.07
51585;BME280;37669;50.312;18.670;2022-10-31T07:34:20;49304.09;;;-145.86;94.04
51585;BME280;37669;50.312;18.670;2022-10-31T07:36:47;49337.78;;;-145.86;93.62
51585;BME280;37669;50.312;18.670;2022-10-31T07:39:14;49341.72;;;-145.86;92.55
51585;BME280;37669;50.312;18.670;2022-10-31T07:41:41;49335.78;;;-145.86;92.12
51585;BME280;37669;50.312;18.670;2022-10-31T07:44:08;49333.81;;;-145.86;91.35
51585;BME280;37669;50.312;18.670;2022-10-31T07:46:36;49327.88;;;-145.86;90.74
51585;BME280;37669;50.312;18.670;2022-10-31T07:49:03;49333.81;;;-145.86;89.98
51585;BME280;37669;50.312;18.670;2022-10-31T07:51:30;49359.56;;;-145.86;89.25
51585;BME280;37669;50.312;18.670;2022-10-31T07:53:57;49357.56;;;-145.86;88.18
51585;BME280;37669;50.312;18.670;2022-10-31T07:56:24;49373.41;;;-145.86;87.40
51585;BME280;37669;50.312;18.670;2022-10-31T07:58:51;49361.53;;;-145.86;86.69
51585;BME280;37669;50.312;18.670;2022-10-31T08:01:18;49359.56;;;-145.86;86.15
51585;BME280;37669;50.312;18.670;2022-10-31T08:03:47;49345.69;;;-145.86;85.82
51585;BME280;37669;50.312;18.670;2022-10-31T08:06:14;49373.41;;;-145.86;84.82
51585;BME280;37669;50.312;18.670;2022-10-31T08:08:41;49377.38;;;-145.86;84.75
51585;BME280;37669;50.312;18.670;2022-10-31T08:11:08;49357.56;;;-145.86;84.35
51585;BME280;37669;50.312;18.670;2022-10-31T08:13:35;49363.50;;;-145.86;83.99
51585;BME280;37669;50.312;18.670;2022-10-31T08:16:02;49385.28;;;-145.86;82.94
51585;BME280;37669;50.312;18.670;2022-10-31T08:18:30;49357.56;;;-145.86;82.73
51585;BME280;37669;50.312;18.670;2022-10-31T08:20:58;49401.13;;;-145.86;82.62
51585;BME280;37669;50.312;18.670;2022-10-31T08:23:25;49401.13;;;-145.86;81.65
51585;BME280;37669;50.312;18.670;2022-10-31T08:25:52;49409.06;;;-145.86;81.00
51585;BME280;37669;50.312;18.670;2022-10-31T08:28:19;49399.16;;;-145.86;81.25
51585;BME280;37669;50.312;18.670;2022-10-31T08:30:46;49395.19;;;-145.86;81.69
51585;BME280;37669;50.312;18.670;2022-10-31T08:33:15;49389.25;;;-145.86;82.80
51585;BME280;37669;50.312;18.670;2022-10-31T08:35:43;49422.94;;;-145.86;82.28
51585;BME280;37669;50.312;18.670;2022-10-31T08:38:12;49341.72;;;-145.86;82.39
51585;BME280;37669;50.312;18.670;2022-10-31T08:40:40;49365.50;;;-145.86;82.34
51585;BME280;37669;50.312;18.670;2022-10-31T08:43:11;49387.28;;;-145.86;81.89
51585;BME280;37669;50.312;18.670;2022-10-31T08:45:38;49389.25;;;-145.86;81.26
51585;BME280;37669;50.312;18.670;2022-10-31T08:48:09;49387.28;;;-145.86;82.15
51585;BME280;37669;50.312;18.670;2022-10-31T08:50:36;49391.25;;;-145.86;82.60
51585;BME280;37669;50.312;18.670;2022-10-31T08:53:05;49393.22;;;-145.86;82.07
51585;BME280;37669;50.312;18.670;2022-10-31T08:55:34;49391.25;;;-145.86;81.84
51585;BME280;37669;50.312;18.670;2022-10-31T08:58:02;49420.94;;;-145.86;81.07
51585;BME280;37669;50.312;18.670;2022-10-31T09:00:30;49405.09;;;-145.86;79.54
51585;BME280;37669;50.312;18.670;2022-10-31T09:02:57;49407.09;;;-145.86;79.62
51585;BME280;37669;50.312;18.670;2022-10-31T09:05:25;49424.91;;;-145.86;80.23
51585;BME280;37669;50.312;18.670;2022-10-31T09:07:55;49420.94;;;-145.86;79.11
51585;BME280;37669;50.312;18.670;2022-10-31T09:10:22;49418.97;;;-145.86;79.43
51585;BME280;37669;50.312;18.670;2022-10-31T09:12:56;49401.13;;;-145.86;77.82
51585;BME280;37669;50.312;18.670;2022-10-31T09:15:23;49407.09;;;-145.86;78.82
51585;BME280;37669;50.312;18.670;2022-10-31T09:17:50;49393.22;;;-145.86;77.74
51585;BME280;37669;50.312;18.670;2022-10-31T09:20:17;49420.94;;;-145.86;77.82
51585;BME280;37669;50.312;18.670;2022-10-31T09:22:44;49405.09;;;-145.86;76.60
51585;BME280;37669;50.312;18.670;2022-10-31T09:25:11;49391.25;;;-145.86;76.62
51585;BME280;37669;50.312;18.670;2022-10-31T09:27:38;49403.13;;;-145.86;75.53
51585;BME280;37669;50.312;18.670;2022-10-31T09:30:08;49413.03;;;-145.86;75.12
51585;BME280;37669;50.312;18.670;2022-10-31T09:32:35;49411.03;;;-145.86;75.44
51585;BME280;37669;50.312;18.670;2022-10-31T09:35:03;49454.59;;;-145.86;76.14
51585;BME280;37669;50.312;18.670;2022-10-31T09:37:30;49416.97;;;-145.86;74.62
51585;BME280;37669;50.312;18.670;2022-10-31T09:39:57;49438.78;;;-145.86;75.20
51585;BME280;37669;50.312;18.670;2022-10-31T09:42:38;49428.88;;;-145.86;73.84
51585;BME280;37669;50.312;18.670;2022-10-31T09:45:15;49440.75;;;-145.86;73.78
51585;BME280;37669;50.312;18.670;2022-10-31T09:47:53;49428.88;;;-145.86;73.92
51585;BME280;37669;50.312;18.670;2022-10-31T09:50:26;49450.66;;;-145.86;73.14
51585;BME280;37669;50.312;18.670;2022-10-31T09:52:59;49448.66;;;-145.86;73.35
51585;BME280;37669;50.312;18.670;2022-10-31T09:55:33;49448.66;;;-145.86;73.52
51585;BME280;37669;50.312;18.670;2022-10-31T09:58:01;49436.78;;;-145.86;72.29
51585;BME280;37669;50.312;18.670;2022-10-31T10:00:30;49472.44;;;-145.86;72.74
51585;BME280;37669;50.312;18.670;2022-10-31T10:03:10;49446.69;;;-145.86;69.78
51585;BME280;37669;50.312;18.670;2022-10-31T10:05:43;49454.59;;;-145.86;68.44
51585;BME280;37669;50.312;18.670;2022-10-31T10:08:17;49452.63;;;-145.86;68.63
51585;BME280;37669;50.312;18.670;2022-10-31T10:10:49;49442.72;;;-145.86;68.46
51585;BME280;37669;50.312;18.670;2022-10-31T10:13:36;49450.66;;;-145.86;68.01
51585;BME280;37669;50.312;18.670;2022-10-31T10:16:20;49468.47;;;-145.86;66.72
51585;BME280;37669;50.312;18.670;2022-10-31T10:18:59;49472.44;;;-145.86;67.02
51585;BME280;37669;50.312;18.670;2022-10-31T10:21:39;49480.34;;;-145.86;66.38
51585;BME280;37669;50.312;18.670;2022-10-31T10:24:23;49468.47;;;-145.86;65.38
51585;BME280;37669;50.312;18.670;2022-10-31T10:26:59;49476.41;;;-145.86;65.14
51585;BME280;37669;50.312;18.670;2022-10-31T10:29:33;49464.50;;;-145.86;65.63
51585;BME280;37669;50.312;18.670;2022-10-31T10:32:09;49444.72;;;-145.86;65.33
51585;BME280;37669;50.312;18.670;2022-10-31T10:34:43;49504.13;;;-145.86;64.03
51585;BME280;37669;50.312;18.670;2022-10-31T10:37:20;49468.47;;;-145.86;63.13
51585;BME280;37669;50.312;18.670;2022-10-31T10:39:52;49452.63;;;-145.86;62.83
51585;BME280;37669;50.312;18.670;2022-10-31T10:42:23;49480.34;;;-145.86;64.11
51585;BME280;37669;50.312;18.670;2022-10-31T10:45:14;49484.31;;;-145.86;63.17
51585;BME280;37669;50.312;18.670;2022-10-31T10:48:06;49458.56;;;-145.86;64.06
51585;BME280;37669;50.312;18.670;2022-10-31T10:50:40;49432.81;;;-145.86;63.52
51585;BME280;37669;50.312;18.670;2022-10-31T10:53:23;49476.41;;;-145.86;62.35
51585;BME280;37669;50.312;18.670;2022-10-31T10:56:04;49510.06;;;-145.86;61.23
51585;BME280;37669;50.312;18.670;2022-10-31T10:58:35;49486.28;;;-145.86;58.57
51585;BME280;37669;50.312;18.670;2022-10-31T11:01:10;49488.28;;;-145.86;57.31
51585;BME280;37669;50.312;18.670;2022-10-31T11:03:40;49482.34;;;-145.86;58.72
51585;BME280;37669;50.312;18.670;2022-10-31T11:06:17;49490.25;;;-145.86;58.07
51585;BME280;37669;50.312;18.670;2022-10-31T11:08:48;49494.22;;;-145.86;57.60
51585;BME280;37669;50.312;18.670;2022-10-31T11:11:24;49498.19;;;-145.86;58.13
51585;BME280;37669;50.312;18.670;2022-10-31T11:13:58;49508.06;;;-145.86;58.63
51585;BME280;37669;50.312;18.670;2022-10-31T11:16:31;49504.13;;;-145.86;58.74
51585;BME280;37669;50.312;18.670;2022-10-31T11:19:09;49488.28;;;-145.86;57.72
51585;BME280;37669;50.312;18.670;2022-10-31T11:21:41;49484.31;;;-145.86;57.88
51585;BME280;37669;50.312;18.670;2022-10-31T11:24:14;49527.88;;;-145.86;56.06
51585;BME280;37669;50.312;18.670;2022-10-31T11:26:44;49476.41;;;-145.86;55.27
51585;BME280;37669;50.312;18.670;2022-10-31T11:29:15;49478.38;;;-145.86;56.26
51585;BME280;37669;50.312;18.670;2022-10-31T11:31:43;49512.03;;;-145.86;56.66
51585;BME280;37669;50.312;18.670;2022-10-31T11:34:18;49456.59;;;-145.86;57.43
51585;BME280;37669;50.312;18.670;2022-10-31T11:36:48;49488.28;;;-145.86;57.58
51585;BME280;37669;50.312;18.670;2022-10-31T11:39:18;49494.22;;;-145.86;57.90
51585;BME280;37669;50.312;18.670;2022-10-31T11:41:47;49510.06;;;-145.86;58.00
51585;BME280;37669;50.312;18.670;2022-10-31T11:44:17;49492.25;;;-145.86;55.99
51585;BME280;37669;50.312;18.670;2022-10-31T11:46:48;49492.25;;;-145.86;56.60
51585;BME280;37669;50.312;18.670;2022-10-31T11:49:19;49512.03;;;-145.86;56.20
51585;BME280;37669;50.312;18.670;2022-10-31T11:51:49;49486.28;;;-145.86;56.32
51585;BME280;37669;50.312;18.670;2022-10-31T11:54:23;49506.09;;;-145.86;56.19
51585;BME280;37669;50.312;18.670;2022-10-31T11:56:50;49484.31;;;-145.86;55.77
51585;BME280;37669;50.312;18.670;2022-10-31T11:59:23;49452.63;;;-145.86;55.76
51585;BME280;37669;50.312;18.670;2022-10-31T12:01:52;49464.50;;;-145.86;55.47
51585;BME280;37669;50.312;18.670;2022-10-31T12:04:27;49476.41;;;-145.86;56.13
51585;BME280;37669;50.312;18.670;2022-10-31T12:06:57;49476.41;;;-145.86;56.46
51585;BME280;37669;50.312;18.670;2022-10-31T12:09:26;49523.91;;;-145.86;57.59
51585;BME280;37669;50.312;18.670;2022-10-31T12:12:24;49514.03;;;-145.86;56.47
51585;BME280;37669;50.312;18.670;2022-10-31T12:15:04;49521.94;;;-145.86;56.12
51585;BME280;37669;50.312;18.670;2022-10-31T12:17:39;49480.34;;;-145.86;54.27
51585;BME280;37669;50.312;18.670;2022-10-31T12:20:17;49502.13;;;-145.86;56.56
51585;BME280;37669;50.312;18.670;2022-10-31T12:22:54;49496.19;;;-145.86;56.32
51585;BME280;37669;50.312;18.670;2022-10-31T12:25:34;49516.00;;;-145.86;54.45
51585;BME280;37669;50.312;18.670;2022-10-31T12:28:18;49512.03;;;-145.86;54.20
51585;BME280;37669;50.312;18.670;2022-10-31T12:31:01;49496.19;;;-145.86;54.52
51585;BME280;37669;50.312;18.670;2022-10-31T12:33:42;49523.91;;;-145.86;55.35
51585;BME280;37669;50.312;18.670;2022-10-31T12:36:25;49504.13;;;-145.86;55.06
51585;BME280;37669;50.312;18.670;2022-10-31T12:39:10;49480.34;;;-145.86;54.28
51585;BME280;37669;50.312;18.670;2022-10-31T12:41:52;49476.41;;;-145.86;54.48
51585;BME280;37669;50.312;18.670;2022-10-31T12:44:58;49480.34;;;-145.86;52.97
51585;BME280;37669;50.312;18.670;2022-10-31T12:47:40;49512.03;;;-145.86;55.07
51585;BME280;37669;50.312;18.670;2022-10-31T12:50:18;49529.88;;;-145.86;52.15
51585;BME280;37669;50.312;18.670;2022-10-31T12:52:59;49523.91;;;-145.86;51.96
51585;BME280;37669;50.312;18.670;2022-10-31T12:55:43;49539.75;;;-145.86;52.40